KELM/ELM METAR and TAF weather

Enter ICAO airport designator
Station Type Date Time Source
KELM METAR 2020/04/10 19:07 UTC NOAA

KELM 101907Z 29009G17KT 260V320 10SM -RA BKN036 BKN044 OVC050 04/ A2955 RMK AO2 P0000 T0044 $


Station Type Date Time Source
KELM Decoded METAR 2020/04/10 19:07 UTC NOAA

ELMIRA COUNTY AIRPORT, NY, United States (KELM) 42-10N 76-54W 302M
Apr 10, 2020 - 03:07 PM EDT / 2020.04.10 1907 UTC
Wind: from the WNW (290 degrees) at 10 MPH (9 KT) gusting to 20 MPH (17 KT) (direction variable):0
Visibility: 10 mile(s):0
Sky conditions: overcast
Weather: light rain
Precipitation last hour: A trace
Temperature: 39 F (4 C)
Pressure (altimeter): 29.55 in. Hg (1000 hPa)
ob: KELM 101907Z 29009G17KT 260V320 10SM -RA BKN036 BKN044 OVC050 04/ A2955 RMK AO2 P0000 T0044
cycle: 19

Station Type Date Time Source
KELM TAF 2020/04/10 18:40 UTC NOAA

TAF KELM 101737Z 1018/1118 28015G25KT P6SM -SHSN OVC035
FM102000 29015G25KT P6SM OVC035
FM110200 28012G22KT P6SM BKN045
FM110400 29013KT P6SM SCT120

Example: see airport list